sensor_id;sensor_type;location;lat;lon;timestamp;pressure;altitude;pressure_sealevel;temperature;humidity
6427;BME280;3246;42.664;23.308;2023-09-19T00:01:43;120715.88;;;-142.62;60.97
6427;BME280;3246;42.664;23.308;2023-09-19T00:04:12;120715.88;;;-142.62;60.95
6427;BME280;3246;42.664;23.308;2023-09-19T00:06:40;120715.88;;;-142.62;60.69
6427;BME280;3246;42.664;23.308;2023-09-19T00:09:08;120715.88;;;-142.62;60.89
6427;BME280;3246;42.664;23.308;2023-09-19T00:11:36;120715.88;;;-142.62;60.96
6427;BME280;3246;42.664;23.308;2023-09-19T00:14:03;120715.88;;;-142.62;61.51
6427;BME280;3246;42.664;23.308;2023-09-19T00:16:34;120715.88;;;-142.62;61.11
6427;BME280;3246;42.664;23.308;2023-09-19T00:19:01;120715.88;;;-142.62;61.16
6427;BME280;3246;42.664;23.308;2023-09-19T00:21:35;120715.88;;;-142.62;61.12
6427;BME280;3246;42.664;23.308;2023-09-19T00:24:03;120715.88;;;-142.62;61.24
6427;BME280;3246;42.664;23.308;2023-09-19T00:26:31;120715.88;;;-142.62;61.43
6427;BME280;3246;42.664;23.308;2023-09-19T00:28:59;120715.88;;;-142.62;61.62
6427;BME280;3246;42.664;23.308;2023-09-19T00:31:30;120715.88;;;-142.62;61.79
6427;BME280;3246;42.664;23.308;2023-09-19T00:33:57;120715.88;;;-142.62;61.22
6427;BME280;3246;42.664;23.308;2023-09-19T00:36:29;120715.88;;;-142.62;61.89
6427;BME280;3246;42.664;23.308;2023-09-19T00:38:57;120715.88;;;-142.62;61.43
6427;BME280;3246;42.664;23.308;2023-09-19T00:41:24;120715.88;;;-142.62;61.81
6427;BME280;3246;42.664;23.308;2023-09-19T00:43:51;120715.88;;;-142.62;61.49
6427;BME280;3246;42.664;23.308;2023-09-19T00:46:18;120715.88;;;-142.62;62.36
6427;BME280;3246;42.664;23.308;2023-09-19T00:48:45;120715.88;;;-142.62;62.04
6427;BME280;3246;42.664;23.308;2023-09-19T00:51:12;120715.88;;;-142.62;62.45
6427;BME280;3246;42.664;23.308;2023-09-19T00:53:43;120715.88;;;-142.62;62.25
6427;BME280;3246;42.664;23.308;2023-09-19T00:56:13;120715.88;;;-142.62;62.37
6427;BME280;3246;42.664;23.308;2023-09-19T00:58:40;120715.88;;;-142.62;62.34
6427;BME280;3246;42.664;23.308;2023-09-19T01:01:07;120715.88;;;-142.62;62.13
6427;BME280;3246;42.664;23.308;2023-09-19T01:03:34;120715.88;;;-142.62;62.33
6427;BME280;3246;42.664;23.308;2023-09-19T01:06:01;120715.88;;;-142.62;62.20
6427;BME280;3246;42.664;23.308;2023-09-19T01:08:28;120715.88;;;-142.62;62.25
6427;BME280;3246;42.664;23.308;2023-09-19T01:10:59;120715.88;;;-142.62;61.99
6427;BME280;3246;42.664;23.308;2023-09-19T01:13:34;120715.88;;;-142.62;62.60
6427;BME280;3246;42.664;23.308;2023-09-19T01:16:10;120715.88;;;-142.62;62.58
6427;BME280;3246;42.664;23.308;2023-09-19T01:18:46;120715.88;;;-142.62;62.66
6427;BME280;3246;42.664;23.308;2023-09-19T01:21:21;120715.88;;;-142.62;62.58
6427;BME280;3246;42.664;23.308;2023-09-19T01:24:16;120715.88;;;-142.62;62.87
6427;BME280;3246;42.664;23.308;2023-09-19T01:27:06;120715.88;;;-142.62;62.61
6427;BME280;3246;42.664;23.308;2023-09-19T01:29:45;120715.88;;;-142.62;62.41
6427;BME280;3246;42.664;23.308;2023-09-19T01:32:17;120715.88;;;-142.62;62.80
6427;BME280;3246;42.664;23.308;2023-09-19T01:34:47;120715.88;;;-142.62;62.55
6427;BME280;3246;42.664;23.308;2023-09-19T01:37:16;120715.88;;;-142.62;62.34
6427;BME280;3246;42.664;23.308;2023-09-19T01:39:46;120715.88;;;-142.62;63.05
6427;BME280;3246;42.664;23.308;2023-09-19T01:42:20;120715.88;;;-142.62;63.17
6427;BME280;3246;42.664;23.308;2023-09-19T01:44:57;120715.88;;;-142.62;63.15
6427;BME280;3246;42.664;23.308;2023-09-19T01:47:32;120715.88;;;-142.62;63.15
6427;BME280;3246;42.664;23.308;2023-09-19T01:50:13;120715.88;;;-142.62;63.24
6427;BME280;3246;42.664;23.308;2023-09-19T01:52:48;120715.88;;;-142.62;64.02
6427;BME280;3246;42.664;23.308;2023-09-19T01:55:16;120715.88;;;-142.62;63.61
6427;BME280;3246;42.664;23.308;2023-09-19T01:57:49;120715.88;;;-142.62;64.02
6427;BME280;3246;42.664;23.308;2023-09-19T02:00:20;120715.88;;;-142.62;64.21
6427;BME280;3246;42.664;23.308;2023-09-19T02:02:50;120715.88;;;-142.62;64.30
6427;BME280;3246;42.664;23.308;2023-09-19T02:05:23;120715.88;;;-142.62;64.28
6427;BME280;3246;42.664;23.308;2023-09-19T02:07:51;120715.88;;;-142.62;64.34
6427;BME280;3246;42.664;23.308;2023-09-19T02:10:19;120715.88;;;-142.62;64.47
6427;BME280;3246;42.664;23.308;2023-09-19T02:12:45;120715.88;;;-142.62;64.60
6427;BME280;3246;42.664;23.308;2023-09-19T02:15:13;120715.88;;;-142.62;64.58
6427;BME280;3246;42.664;23.308;2023-09-19T02:17:41;120715.88;;;-142.62;64.09
6427;BME280;3246;42.664;23.308;2023-09-19T02:20:10;120715.88;;;-142.62;64.15
6427;BME280;3246;42.664;23.308;2023-09-19T02:22:40;120715.88;;;-142.62;64.69
6427;BME280;3246;42.664;23.308;2023-09-19T02:25:07;120715.88;;;-142.62;64.63
6427;BME280;3246;42.664;23.308;2023-09-19T02:27:34;120715.88;;;-142.62;64.41
6427;BME280;3246;42.664;23.308;2023-09-19T02:30:03;120715.88;;;-142.62;64.01
6427;BME280;3246;42.664;23.308;2023-09-19T02:32:31;120715.88;;;-142.62;64.30
6427;BME280;3246;42.664;23.308;2023-09-19T02:35:01;120715.88;;;-142.62;64.13
6427;BME280;3246;42.664;23.308;2023-09-19T02:37:31;120715.88;;;-142.62;64.38
6427;BME280;3246;42.664;23.308;2023-09-19T02:39:58;120715.88;;;-142.62;64.34
6427;BME280;3246;42.664;23.308;2023-09-19T02:42:25;120715.88;;;-142.62;64.76
6427;BME280;3246;42.664;23.308;2023-09-19T02:44:52;120715.88;;;-142.62;64.71
6427;BME280;3246;42.664;23.308;2023-09-19T02:47:19;120715.88;;;-142.62;64.61
6427;BME280;3246;42.664;23.308;2023-09-19T02:49:45;120715.88;;;-142.62;64.78
6427;BME280;3246;42.664;23.308;2023-09-19T02:52:12;120715.88;;;-142.62;64.42
6427;BME280;3246;42.664;23.308;2023-09-19T02:54:41;120715.88;;;-142.62;64.69
6427;BME280;3246;42.664;23.308;2023-09-19T02:57:11;120715.88;;;-142.62;64.61
6427;BME280;3246;42.664;23.308;2023-09-19T02:59:39;120715.88;;;-142.62;64.79
6427;BME280;3246;42.664;23.308;2023-09-19T03:02:07;120715.88;;;-142.62;64.48
6427;BME280;3246;42.664;23.308;2023-09-19T03:04:34;120715.88;;;-142.62;64.34
6427;BME280;3246;42.664;23.308;2023-09-19T03:07:01;120715.88;;;-142.62;64.23
6427;BME280;3246;42.664;23.308;2023-09-19T03:09:29;120715.88;;;-142.62;64.50
6427;BME280;3246;42.664;23.308;2023-09-19T03:11:58;120715.88;;;-142.62;64.18
6427;BME280;3246;42.664;23.308;2023-09-19T03:14:25;120715.88;;;-142.62;63.99
6427;BME280;3246;42.664;23.308;2023-09-19T03:16:55;120715.88;;;-142.62;64.05
6427;BME280;3246;42.664;23.308;2023-09-19T03:19:22;120715.88;;;-142.62;64.03
6427;BME280;3246;42.664;23.308;2023-09-19T03:21:48;120715.88;;;-142.62;64.01
6427;BME280;3246;42.664;23.308;2023-09-19T03:24:16;120715.88;;;-142.62;64.13
6427;BME280;3246;42.664;23.308;2023-09-19T03:26:43;120715.88;;;-142.62;64.53
6427;BME280;3246;42.664;23.308;2023-09-19T03:29:12;120715.88;;;-142.62;64.26
6427;BME280;3246;42.664;23.308;2023-09-19T03:31:39;120715.88;;;-142.62;64.28
6427;BME280;3246;42.664;23.308;2023-09-19T03:34:06;120715.88;;;-142.62;64.52
6427;BME280;3246;42.664;23.308;2023-09-19T03:36:34;120715.88;;;-142.62;65.60
6427;BME280;3246;42.664;23.308;2023-09-19T03:39:01;120715.88;;;-142.62;65.67
6427;BME280;3246;42.664;23.308;2023-09-19T03:41:31;120715.88;;;-142.62;65.17
6427;BME280;3246;42.664;23.308;2023-09-19T03:43:58;120715.88;;;-142.62;65.74
6427;BME280;3246;42.664;23.308;2023-09-19T03:46:27;120715.88;;;-142.62;66.45
6427;BME280;3246;42.664;23.308;2023-09-19T03:48:54;120715.88;;;-142.62;66.79
6427;BME280;3246;42.664;23.308;2023-09-19T03:51:21;120715.88;;;-142.62;67.11
6427;BME280;3246;42.664;23.308;2023-09-19T03:53:48;120715.88;;;-142.62;67.55
6427;BME280;3246;42.664;23.308;2023-09-19T03:56:15;120715.88;;;-142.62;68.07
6427;BME280;3246;42.664;23.308;2023-09-19T03:58:42;120715.88;;;-142.62;67.84
6427;BME280;3246;42.664;23.308;2023-09-19T04:01:09;120715.88;;;-142.62;68.19
6427;BME280;3246;42.664;23.308;2023-09-19T04:03:37;120715.88;;;-142.62;68.43
6427;BME280;3246;42.664;23.308;2023-09-19T04:06:12;120715.88;;;-142.62;68.11
6427;BME280;3246;42.664;23.308;2023-09-19T04:08:39;120715.88;;;-142.62;68.56
6427;BME280;3246;42.664;23.308;2023-09-19T04:11:06;120715.88;;;-142.62;68.35
6427;BME280;3246;42.664;23.308;2023-09-19T04:13:33;120715.88;;;-142.62;69.33
6427;BME280;3246;42.664;23.308;2023-09-19T04:16:00;120715.88;;;-142.62;69.43
6427;BME280;3246;42.664;23.308;2023-09-19T04:18:26;120715.88;;;-142.62;69.87
6427;BME280;3246;42.664;23.308;2023-09-19T04:20:54;120715.88;;;-142.62;70.36
6427;BME280;3246;42.664;23.308;2023-09-19T04:23:21;120715.88;;;-142.62;70.40
6427;BME280;3246;42.664;23.308;2023-09-19T04:25:48;120715.88;;;-142.62;70.39
6427;BME280;3246;42.664;23.308;2023-09-19T04:28:15;120715.88;;;-142.62;70.57
6427;BME280;3246;42.664;23.308;2023-09-19T04:30:43;120715.88;;;-142.62;70.20
6427;BME280;3246;42.664;23.308;2023-09-19T04:33:09;120715.88;;;-142.62;69.42
6427;BME280;3246;42.664;23.308;2023-09-19T04:35:37;120715.88;;;-142.62;69.21
6427;BME280;3246;42.664;23.308;2023-09-19T04:38:05;120715.88;;;-142.62;68.99
6427;BME280;3246;42.664;23.308;2023-09-19T04:40:32;120715.88;;;-142.62;69.23
6427;BME280;3246;42.664;23.308;2023-09-19T04:42:59;120715.88;;;-142.62;69.45
6427;BME280;3246;42.664;23.308;2023-09-19T04:45:27;120715.88;;;-142.62;68.98
6427;BME280;3246;42.664;23.308;2023-09-19T04:47:54;120715.88;;;-142.62;68.92
6427;BME280;3246;42.664;23.308;2023-09-19T04:50:22;120715.88;;;-142.62;68.90
6427;BME280;3246;42.664;23.308;2023-09-19T04:52:50;120715.88;;;-142.62;68.71
6427;BME280;3246;42.664;23.308;2023-09-19T04:55:18;120715.88;;;-142.62;68.28
6427;BME280;3246;42.664;23.308;2023-09-19T04:57:46;120715.88;;;-142.62;68.19
6427;BME280;3246;42.664;23.308;2023-09-19T05:00:14;120715.88;;;-142.62;68.17
6427;BME280;3246;42.664;23.308;2023-09-19T05:02:42;120715.88;;;-142.62;67.94
6427;BME280;3246;42.664;23.308;2023-09-19T05:05:10;120715.88;;;-142.62;68.27
6427;BME280;3246;42.664;23.308;2023-09-19T05:07:39;120715.88;;;-142.62;68.06
6427;BME280;3246;42.664;23.308;2023-09-19T05:10:07;120715.88;;;-142.62;67.74
6427;BME280;3246;42.664;23.308;2023-09-19T05:12:35;120715.88;;;-142.62;67.51
6427;BME280;3246;42.664;23.308;2023-09-19T05:15:02;120715.88;;;-142.62;67.42
6427;BME280;3246;42.664;23.308;2023-09-19T05:17:30;120715.88;;;-142.62;67.16
6427;BME280;3246;42.664;23.308;2023-09-19T05:19:57;120715.88;;;-142.62;66.82
6427;BME280;3246;42.664;23.308;2023-09-19T05:22:26;120715.88;;;-142.62;67.02
6427;BME280;3246;42.664;23.308;2023-09-19T05:24:54;120715.88;;;-142.62;66.54
6427;BME280;3246;42.664;23.308;2023-09-19T05:27:21;120715.88;;;-142.62;66.54
6427;BME280;3246;42.664;23.308;2023-09-19T05:29:49;120715.88;;;-142.62;66.40
6427;BME280;3246;42.664;23.308;2023-09-19T05:32:18;120715.88;;;-142.62;66.05
6427;BME280;3246;42.664;23.308;2023-09-19T05:34:46;120715.88;;;-142.62;65.73
6427;BME280;3246;42.664;23.308;2023-09-19T05:37:13;120715.88;;;-142.62;65.70
6427;BME280;3246;42.664;23.308;2023-09-19T05:39:41;120715.88;;;-142.62;65.71
6427;BME280;3246;42.664;23.308;2023-09-19T05:42:08;120715.88;;;-142.62;65.38
6427;BME280;3246;42.664;23.308;2023-09-19T05:44:35;120715.88;;;-142.62;64.71
6427;BME280;3246;42.664;23.308;2023-09-19T05:47:03;120715.88;;;-142.62;63.97
6427;BME280;3246;42.664;23.308;2023-09-19T05:49:30;120715.88;;;-142.62;63.81
6427;BME280;3246;42.664;23.308;2023-09-19T05:51:57;120715.88;;;-142.62;63.85
6427;BME280;3246;42.664;23.308;2023-09-19T05:54:24;120715.88;;;-142.62;63.89
6427;BME280;3246;42.664;23.308;2023-09-19T05:56:51;120715.88;;;-142.62;63.56
6427;BME280;3246;42.664;23.308;2023-09-19T05:59:18;120715.88;;;-142.62;63.91
6427;BME280;3246;42.664;23.308;2023-09-19T06:01:45;120715.88;;;-142.62;63.55
6427;BME280;3246;42.664;23.308;2023-09-19T06:04:14;120715.88;;;-142.62;63.41
6427;BME280;3246;42.664;23.308;2023-09-19T06:06:40;120715.88;;;-142.62;63.20
6427;BME280;3246;42.664;23.308;2023-09-19T06:09:08;120715.88;;;-142.62;63.42
6427;BME280;3246;42.664;23.308;2023-09-19T06:11:34;120715.88;;;-142.62;63.04
6427;BME280;3246;42.664;23.308;2023-09-19T06:14:01;120715.88;;;-142.62;62.71
6427;BME280;3246;42.664;23.308;2023-09-19T06:16:28;120715.88;;;-142.62;62.87
6427;BME280;3246;42.664;23.308;2023-09-19T06:18:55;120715.88;;;-142.62;62.43
6427;BME280;3246;42.664;23.308;2023-09-19T06:21:23;120715.88;;;-142.62;62.02
6427;BME280;3246;42.664;23.308;2023-09-19T06:23:52;120715.88;;;-142.62;62.56
6427;BME280;3246;42.664;23.308;2023-09-19T06:26:19;120715.88;;;-142.62;62.63
6427;BME280;3246;42.664;23.308;2023-09-19T06:28:46;120715.88;;;-142.62;61.84
6427;BME280;3246;42.664;23.308;2023-09-19T06:31:13;120715.88;;;-142.62;61.80
6427;BME280;3246;42.664;23.308;2023-09-19T06:33:40;120715.88;;;-142.62;62.02
6427;BME280;3246;42.664;23.308;2023-09-19T06:36:08;120715.88;;;-142.62;61.84
6427;BME280;3246;42.664;23.308;2023-09-19T06:38:36;120715.88;;;-142.62;61.75
6427;BME280;3246;42.664;23.308;2023-09-19T06:41:05;120715.88;;;-142.62;60.87
6427;BME280;3246;42.664;23.308;2023-09-19T06:43:32;120715.88;;;-142.62;61.00
6427;BME280;3246;42.664;23.308;2023-09-19T06:45:59;120715.88;;;-142.62;61.45
6427;BME280;3246;42.664;23.308;2023-09-19T06:48:26;120715.88;;;-142.62;61.21
6427;BME280;3246;42.664;23.308;2023-09-19T06:50:54;120715.88;;;-142.62;60.25
6427;BME280;3246;42.664;23.308;2023-09-19T06:53:21;120715.88;;;-142.62;59.95
6427;BME280;3246;42.664;23.308;2023-09-19T06:55:50;120715.88;;;-142.62;59.95
6427;BME280;3246;42.664;23.308;2023-09-19T06:58:17;120715.88;;;-142.62;60.32
6427;BME280;3246;42.664;23.308;2023-09-19T07:00:44;120715.88;;;-142.62;59.98
6427;BME280;3246;42.664;23.308;2023-09-19T07:03:13;120715.88;;;-142.62;59.94
6427;BME280;3246;42.664;23.308;2023-09-19T07:05:41;120715.88;;;-142.62;59.70
6427;BME280;3246;42.664;23.308;2023-09-19T07:08:10;120715.88;;;-142.62;59.39
6427;BME280;3246;42.664;23.308;2023-09-19T07:10:38;120715.88;;;-142.62;59.54
6427;BME280;3246;42.664;23.308;2023-09-19T07:13:07;120715.88;;;-142.62;59.81
6427;BME280;3246;42.664;23.308;2023-09-19T07:15:37;120715.88;;;-142.62;59.79
6427;BME280;3246;42.664;23.308;2023-09-19T07:18:07;120715.88;;;-142.62;59.77
6427;BME280;3246;42.664;23.308;2023-09-19T07:20:36;120715.88;;;-142.62;59.32
6427;BME280;3246;42.664;23.308;2023-09-19T07:23:03;120715.88;;;-142.62;59.58
6427;BME280;3246;42.664;23.308;2023-09-19T07:25:31;120715.88;;;-142.62;59.61
6427;BME280;3246;42.664;23.308;2023-09-19T07:27:58;120715.88;;;-142.62;59.21
6427;BME280;3246;42.664;23.308;2023-09-19T07:30:27;120715.88;;;-142.62;59.16
6427;BME280;3246;42.664;23.308;2023-09-19T07:32:54;120715.88;;;-142.62;58.82
6427;BME280;3246;42.664;23.308;2023-09-19T07:35:21;120715.88;;;-142.62;59.14
6427;BME280;3246;42.664;23.308;2023-09-19T07:37:48;120715.88;;;-142.62;58.83
6427;BME280;3246;42.664;23.308;2023-09-19T07:40:17;120715.88;;;-142.62;58.95
6427;BME280;3246;42.664;23.308;2023-09-19T07:42:43;120715.88;;;-142.62;59.05
6427;BME280;3246;42.664;23.308;2023-09-19T07:45:12;120715.88;;;-142.62;58.82
6427;BME280;3246;42.664;23.308;2023-09-19T07:47:45;120715.88;;;-142.62;58.43
6427;BME280;3246;42.664;23.308;2023-09-19T07:50:12;120715.88;;;-142.62;58.42
6427;BME280;3246;42.664;23.308;2023-09-19T07:52:39;120715.88;;;-142.62;58.43
6427;BME280;3246;42.664;23.308;2023-09-19T07:55:06;120715.88;;;-142.62;59.07
6427;BME280;3246;42.664;23.308;2023-09-19T07:57:34;120715.88;;;-142.62;58.84
6427;BME280;3246;42.664;23.308;2023-09-19T08:00:03;120715.88;;;-142.62;58.79
6427;BME280;3246;42.664;23.308;2023-09-19T08:02:34;120715.88;;;-142.62;58.37
6427;BME280;3246;42.664;23.308;2023-09-19T08:05:05;120715.88;;;-142.62;59.24
6427;BME280;3246;42.664;23.308;2023-09-19T08:07:35;120715.88;;;-142.62;59.02
6427;BME280;3246;42.664;23.308;2023-09-19T08:10:02;120715.88;;;-142.62;58.91
6427;BME280;3246;42.664;23.308;2023-09-19T08:12:29;120715.88;;;-142.62;59.10
6427;BME280;3246;42.664;23.308;2023-09-19T08:14:56;120715.88;;;-142.62;58.44
6427;BME280;3246;42.664;23.308;2023-09-19T08:17:23;120715.88;;;-142.62;58.55
6427;BME280;3246;42.664;23.308;2023-09-19T08:19:50;120715.88;;;-142.62;58.37
6427;BME280;3246;42.664;23.308;2023-09-19T08:22:19;120715.88;;;-142.62;57.91
6427;BME280;3246;42.664;23.308;2023-09-19T08:24:47;120715.88;;;-142.62;57.65
6427;BME280;3246;42.664;23.308;2023-09-19T08:27:14;120715.88;;;-142.62;57.12
6427;BME280;3246;42.664;23.308;2023-09-19T08:29:43;120715.88;;;-142.62;57.36
6427;BME280;3246;42.664;23.308;2023-09-19T08:32:10;120715.88;;;-142.62;56.46
6427;BME280;3246;42.664;23.308;2023-09-19T08:34:37;120715.88;;;-142.62;56.78
6427;BME280;3246;42.664;23.308;2023-09-19T08:37:04;120715.88;;;-142.62;56.62
6427;BME280;3246;42.664;23.308;2023-09-19T08:39:32;120715.88;;;-142.62;56.93
6427;BME280;3246;42.664;23.308;2023-09-19T08:42:01;120715.88;;;-142.62;56.74
6427;BME280;3246;42.664;23.308;2023-09-19T08:44:29;120715.88;;;-142.62;56.25
6427;BME280;3246;42.664;23.308;2023-09-19T08:47:01;120715.88;;;-142.62;55.97
6427;BME280;3246;42.664;23.308;2023-09-19T08:49:37;120715.88;;;-142.62;56.05
6427;BME280;3246;42.664;23.308;2023-09-19T08:52:18;120715.88;;;-142.62;55.87
6427;BME280;3246;42.664;23.308;2023-09-19T08:54:48;120715.88;;;-142.62;55.79
6427;BME280;3246;42.664;23.308;2023-09-19T08:57:19;120715.88;;;-142.62;55.18
6427;BME280;3246;42.664;23.308;2023-09-19T08:59:47;120715.88;;;-142.62;55.89
6427;BME280;3246;42.664;23.308;2023-09-19T09:02:15;120715.88;;;-142.62;55.55
6427;BME280;3246;42.664;23.308;2023-09-19T09:04:45;120715.88;;;-142.62;54.96
6427;BME280;3246;42.664;23.308;2023-09-19T09:07:13;120715.88;;;-142.62;55.16
6427;BME280;3246;42.664;23.308;2023-09-19T09:09:41;120715.88;;;-142.62;55.07
6427;BME280;3246;42.664;23.308;2023-09-19T09:12:12;120715.88;;;-142.62;54.79
6427;BME280;3246;42.664;23.308;2023-09-19T09:14:40;120715.88;;;-142.62;54.95
6427;BME280;3246;42.664;23.308;2023-09-19T09:17:11;120715.88;;;-142.62;54.69
6427;BME280;3246;42.664;23.308;2023-09-19T09:19:38;120715.88;;;-142.62;54.30
6427;BME280;3246;42.664;23.308;2023-09-19T09:22:08;120715.88;;;-142.62;54.27
6427;BME280;3246;42.664;23.308;2023-09-19T09:24:36;120715.88;;;-142.62;54.04
6427;BME280;3246;42.664;23.308;2023-09-19T09:27:05;120715.88;;;-142.62;53.95
6427;BME280;3246;42.664;23.308;2023-09-19T09:29:45;120715.88;;;-142.62;54.16
6427;BME280;3246;42.664;23.308;2023-09-19T09:32:22;120715.88;;;-142.62;54.13
6427;BME280;3246;42.664;23.308;2023-09-19T09:34:51;120715.88;;;-142.62;54.14
6427;BME280;3246;42.664;23.308;2023-09-19T09:37:18;120715.88;;;-142.62;54.27
6427;BME280;3246;42.664;23.308;2023-09-19T09:39:50;120715.88;;;-142.62;53.90
6427;BME280;3246;42.664;23.308;2023-09-19T09:42:32;120715.88;;;-142.62;53.52
6427;BME280;3246;42.664;23.308;2023-09-19T09:45:18;120715.88;;;-142.62;53.26
6427;BME280;3246;42.664;23.308;2023-09-19T09:47:54;120715.88;;;-142.62;53.20
6427;BME280;3246;42.664;23.308;2023-09-19T09:50:26;120715.88;;;-142.62;53.20
6427;BME280;3246;42.664;23.308;2023-09-19T09:52:55;120715.88;;;-142.62;52.88
6427;BME280;3246;42.664;23.308;2023-09-19T09:55:29;120715.88;;;-142.62;52.82
6427;BME280;3246;42.664;23.308;2023-09-19T09:58:16;120715.88;;;-142.62;52.32
6427;BME280;3246;42.664;23.308;2023-09-19T10:00:54;120715.88;;;-142.62;52.94
6427;BME280;3246;42.664;23.308;2023-09-19T10:03:31;120715.88;;;-142.62;52.91
6427;BME280;3246;42.664;23.308;2023-09-19T10:06:00;120715.88;;;-142.62;52.71
6427;BME280;3246;42.664;23.308;2023-09-19T10:08:28;120715.88;;;-142.62;52.69
6427;BME280;3246;42.664;23.308;2023-09-19T10:10:56;120715.88;;;-142.62;53.04
6427;BME280;3246;42.664;23.308;2023-09-19T10:13:31;120715.88;;;-142.62;52.75
6427;BME280;3246;42.664;23.308;2023-09-19T10:16:05;120715.88;;;-142.62;52.79
6427;BME280;3246;42.664;23.308;2023-09-19T10:18:36;120715.88;;;-142.62;52.69
6427;BME280;3246;42.664;23.308;2023-09-19T10:21:04;120715.88;;;-142.62;52.40
6427;BME280;3246;42.664;23.308;2023-09-19T10:23:33;120715.88;;;-142.62;51.95
6427;BME280;3246;42.664;23.308;2023-09-19T10:26:02;120715.88;;;-142.62;52.33
6427;BME280;3246;42.664;23.308;2023-09-19T10:28:30;120715.88;;;-142.62;52.18
6427;BME280;3246;42.664;23.308;2023-09-19T10:31:00;120715.88;;;-142.62;51.91
6427;BME280;3246;42.664;23.308;2023-09-19T10:33:35;120715.88;;;-142.62;51.77
6427;BME280;3246;42.664;23.308;2023-09-19T10:36:05;120715.88;;;-142.62;51.95
6427;BME280;3246;42.664;23.308;2023-09-19T10:38:33;120715.88;;;-142.62;51.57
6427;BME280;3246;42.664;23.308;2023-09-19T10:41:01;120715.88;;;-142.62;51.03
6427;BME280;3246;42.664;23.308;2023-09-19T10:43:30;120715.88;;;-142.62;51.35
6427;BME280;3246;42.664;23.308;2023-09-19T10:46:02;120715.88;;;-142.62;50.75
6427;BME280;3246;42.664;23.308;2023-09-19T10:48:29;120715.88;;;-142.62;51.09
6427;BME280;3246;42.664;23.308;2023-09-19T10:51:02;120715.88;;;-142.62;51.19
6427;BME280;3246;42.664;23.308;2023-09-19T10:53:41;120715.88;;;-142.62;50.89
6427;BME280;3246;42.664;23.308;2023-09-19T10:56:10;120715.88;;;-142.62;50.64
6427;BME280;3246;42.664;23.308;2023-09-19T10:58:43;120715.88;;;-142.62;50.79
6427;BME280;3246;42.664;23.308;2023-09-19T11:01:12;120715.88;;;-142.62;50.66
6427;BME280;3246;42.664;23.308;2023-09-19T11:03:41;120715.88;;;-142.62;50.49
6427;BME280;3246;42.664;23.308;2023-09-19T11:06:12;120715.88;;;-142.62;50.42
6427;BME280;3246;42.664;23.308;2023-09-19T11:09:01;120715.88;;;-142.62;50.50
6427;BME280;3246;42.664;23.308;2023-09-19T11:11:48;120715.88;;;-142.62;50.77
6427;BME280;3246;42.664;23.308;2023-09-19T11:14:29;120715.88;;;-142.62;50.77
6427;BME280;3246;42.664;23.308;2023-09-19T11:20:22;120715.88;;;-142.62;51.14
6427;BME280;3246;42.664;23.308;2023-09-19T11:23:19;120715.88;;;-142.62;50.79
6427;BME280;3246;42.664;23.308;2023-09-19T11:25:52;120715.88;;;-142.62;50.63
6427;BME280;3246;42.664;23.308;2023-09-19T11:28:30;120715.88;;;-142.62;50.82
6427;BME280;3246;42.664;23.308;2023-09-19T11:30:56;120715.88;;;-142.62;50.54
6427;BME280;3246;42.664;23.308;2023-09-19T11:33:25;120715.88;;;-142.62;50.08
6427;BME280;3246;42.664;23.308;2023-09-19T11:36:04;120715.88;;;-142.62;49.92
6427;BME280;3246;42.664;23.308;2023-09-19T11:38:59;120715.88;;;-142.62;49.94
6427;BME280;3246;42.664;23.308;2023-09-19T11:41:39;120715.88;;;-142.62;50.52
6427;BME280;3246;42.664;23.308;2023-09-19T11:44:32;120715.88;;;-142.62;50.00
6427;BME280;3246;42.664;23.308;2023-09-19T11:47:02;120715.88;;;-142.62;49.89
6427;BME280;3246;42.664;23.308;2023-09-19T11:49:30;120715.88;;;-142.62;49.56
6427;BME280;3246;42.664;23.308;2023-09-19T11:52:01;120715.88;;;-142.62;49.65
6427;BME280;3246;42.664;23.308;2023-09-19T11:54:31;120715.88;;;-142.62;49.99
6427;BME280;3246;42.664;23.308;2023-09-19T11:56:58;120715.88;;;-142.62;50.02
6427;BME280;3246;42.664;23.308;2023-09-19T11:59:26;120715.88;;;-142.62;49.57
6427;BME280;3246;42.664;23.308;2023-09-19T12:01:55;120715.88;;;-142.62;49.44
6427;BME280;3246;42.664;23.308;2023-09-19T12:04:37;120715.88;;;-142.62;48.99
6427;BME280;3246;42.664;23.308;2023-09-19T12:07:06;120715.88;;;-142.62;48.90
6427;BME280;3246;42.664;23.308;2023-09-19T12:09:41;120715.88;;;-142.62;49.24
6427;BME280;3246;42.664;23.308;2023-09-19T12:12:10;120715.88;;;-142.62;49.04
6427;BME280;3246;42.664;23.308;2023-09-19T12:14:38;120715.88;;;-142.62;49.04
6427;BME280;3246;42.664;23.308;2023-09-19T12:17:08;120715.88;;;-142.62;48.71
6427;BME280;3246;42.664;23.308;2023-09-19T12:19:35;120715.88;;;-142.62;48.67
6427;BME280;3246;42.664;23.308;2023-09-19T12:22:02;120715.88;;;-142.62;48.72
6427;BME280;3246;42.664;23.308;2023-09-19T12:24:32;120715.88;;;-142.62;48.90
6427;BME280;3246;42.664;23.308;2023-09-19T12:27:03;120715.88;;;-142.62;48.85
6427;BME280;3246;42.664;23.308;2023-09-19T12:29:44;120715.88;;;-142.62;48.85
6427;BME280;3246;42.664;23.308;2023-09-19T12:32:11;120715.88;;;-142.62;48.10
6427;BME280;3246;42.664;23.308;2023-09-19T12:34:40;120715.88;;;-142.62;48.53
6427;BME280;3246;42.664;23.308;2023-09-19T12:37:10;120715.88;;;-142.62;47.56
6427;BME280;3246;42.664;23.308;2023-09-19T12:39:43;120715.88;;;-142.62;47.93
6427;BME280;3246;42.664;23.308;2023-09-19T12:42:14;120715.88;;;-142.62;47.92
6427;BME280;3246;42.664;23.308;2023-09-19T12:44:43;120715.88;;;-142.62;47.84
6427;BME280;3246;42.664;23.308;2023-09-19T12:47:11;120715.88;;;-142.62;47.70
6427;BME280;3246;42.664;23.308;2023-09-19T12:50:06;120715.88;;;-142.62;47.54
6427;BME280;3246;42.664;23.308;2023-09-19T12:52:39;120715.88;;;-142.62;47.72
6427;BME280;3246;42.664;23.308;2023-09-19T12:55:09;120715.88;;;-142.62;47.63
6427;BME280;3246;42.664;23.308;2023-09-19T12:57:55;120715.88;;;-142.62;47.27